<?xml version="1.0" encoding="UTF-8" standalone="no" ?>
<gpx xmlns="http://www.topografix.com/GPX/1/1" xmlns:xsi="http://www.w3.org/2001/XMLSchema-instance" xsi:schemaLocation="http://www.topografix.com/GPX/1/1 http://www.topografix.com/GPX/1/1/gpx.xsd" version="1.1" creator="VisuGPX - https://www.visugpx.com">
  <metadata>
    <name>Circuit Footing autour de Morsent</name>
    <desc><![CDATA[Amélioration du précédent circuit plus de passage en Forêt]]></desc>
  </metadata>
  <wpt lat="49.00243" lon="1.08928">
    <ele>120.77</ele>
    <name><![CDATA[001]]></name>
  </wpt>
  <wpt lat="38.85555" lon="-94.79902">
    <ele>3.01</ele>
    <name><![CDATA[GARMIN]]></name>
  </wpt>
  <wpt lat="50.98288" lon="-1.4639">
    <ele>3.01</ele>
    <name><![CDATA[GRMEUR]]></name>
  </wpt>
  <wpt lat="25.06178" lon="121.64027">
    <ele>3.01</ele>
    <name><![CDATA[GRMTWN]]></name>
  </wpt>
  <wpt lat="43.57746" lon="1.45163">
    <ele>97.22</ele>
    <name><![CDATA[MAP]]></name>
  </wpt>
  <trk>
    <name><![CDATA[ACTIVE LOG: 12 FEV 2011 07:43]]></name>
    <trkseg>
      <trkpt lat="49.00243" lon="1.08928">
        <ele>116.94</ele>
        <time>2011-02-12T06:43:13Z</time>
      </trkpt>
      <trkpt lat="49.00244" lon="1.08928">
        <ele>117.42</ele>
        <time>2011-02-12T06:43:29Z</time>
      </trkpt>
      <trkpt lat="49.00244" lon="1.08928">
        <ele>116.94</ele>
        <time>2011-02-12T06:43:33Z</time>
      </trkpt>
      <trkpt lat="49.00244" lon="1.08934">
        <ele>117.42</ele>
        <time>2011-02-12T06:43:37Z</time>
      </trkpt>
      <trkpt lat="49.0024" lon="1.08944">
        <ele>117.9</ele>
        <time>2011-02-12T06:43:40Z</time>
      </trkpt>
      <trkpt lat="49.00213" lon="1.0895">
        <ele>117.42</ele>
        <time>2011-02-12T06:43:50Z</time>
      </trkpt>
      <trkpt lat="49.00204" lon="1.08967">
        <ele>117.9</ele>
        <time>2011-02-12T06:43:56Z</time>
      </trkpt>
      <trkpt lat="49.00217" lon="1.09022">
        <ele>116.46</ele>
        <time>2011-02-12T06:44:08Z</time>
      </trkpt>
      <trkpt lat="49.00236" lon="1.09068">
        <ele>116.94</ele>
        <time>2011-02-12T06:44:19Z</time>
      </trkpt>
      <trkpt lat="49.00248" lon="1.09089">
        <ele>116.46</ele>
        <time>2011-02-12T06:44:25Z</time>
      </trkpt>
      <trkpt lat="49.00241" lon="1.09121">
        <ele>116.46</ele>
        <time>2011-02-12T06:44:33Z</time>
      </trkpt>
      <trkpt lat="49.00231" lon="1.09131">
        <ele>116.94</ele>
        <time>2011-02-12T06:44:37Z</time>
      </trkpt>
      <trkpt lat="49.00203" lon="1.0914">
        <ele>117.9</ele>
        <time>2011-02-12T06:44:48Z</time>
      </trkpt>
      <trkpt lat="49.0017" lon="1.09152">
        <ele>118.38</ele>
        <time>2011-02-12T06:45:00Z</time>
      </trkpt>
      <trkpt lat="49.00139" lon="1.09192">
        <ele>118.86</ele>
        <time>2011-02-12T06:45:15Z</time>
      </trkpt>
      <trkpt lat="49.00133" lon="1.09238">
        <ele>116.46</ele>
        <time>2011-02-12T06:45:27Z</time>
      </trkpt>
      <trkpt lat="49.00145" lon="1.09281">
        <ele>117.42</ele>
        <time>2011-02-12T06:45:40Z</time>
      </trkpt>
      <trkpt lat="49.00156" lon="1.09313">
        <ele>117.9</ele>
        <time>2011-02-12T06:45:50Z</time>
      </trkpt>
      <trkpt lat="49.00159" lon="1.09324">
        <ele>116.46</ele>
        <time>2011-02-12T06:45:53Z</time>
      </trkpt>
      <trkpt lat="49.0016" lon="1.09349">
        <ele>114.53</ele>
        <time>2011-02-12T06:46:01Z</time>
      </trkpt>
      <trkpt lat="49.00159" lon="1.09371">
        <ele>111.17</ele>
        <time>2011-02-12T06:46:07Z</time>
      </trkpt>
      <trkpt lat="49.00159" lon="1.09379">
        <ele>110.21</ele>
        <time>2011-02-12T06:46:09Z</time>
      </trkpt>
      <trkpt lat="49.0016" lon="1.09405">
        <ele>107.32</ele>
        <time>2011-02-12T06:46:17Z</time>
      </trkpt>
      <trkpt lat="49.00162" lon="1.09423">
        <ele>104.92</ele>
        <time>2011-02-12T06:46:22Z</time>
      </trkpt>
      <trkpt lat="49.00162" lon="1.09451">
        <ele>101.56</ele>
        <time>2011-02-12T06:46:29Z</time>
      </trkpt>
      <trkpt lat="49.00163" lon="1.09461">
        <ele>100.11</ele>
        <time>2011-02-12T06:46:32Z</time>
      </trkpt>
      <trkpt lat="49.00163" lon="1.09487">
        <ele>97.23</ele>
        <time>2011-02-12T06:46:38Z</time>
      </trkpt>
      <trkpt lat="49.00163" lon="1.09492">
        <ele>96.75</ele>
        <time>2011-02-12T06:46:39Z</time>
      </trkpt>
      <trkpt lat="49.00163" lon="1.09504">
        <ele>95.79</ele>
        <time>2011-02-12T06:46:42Z</time>
      </trkpt>
      <trkpt lat="49.00163" lon="1.09525">
        <ele>92.42</ele>
        <time>2011-02-12T06:46:48Z</time>
      </trkpt>
      <trkpt lat="49.00163" lon="1.0954">
        <ele>91.46</ele>
        <time>2011-02-12T06:46:52Z</time>
      </trkpt>
      <trkpt lat="49.00163" lon="1.09564">
        <ele>87.62</ele>
        <time>2011-02-12T06:46:59Z</time>
      </trkpt>
      <trkpt lat="49.00162" lon="1.09572">
        <ele>86.66</ele>
        <time>2011-02-12T06:47:01Z</time>
      </trkpt>
      <trkpt lat="49.00162" lon="1.0959">
        <ele>83.77</ele>
        <time>2011-02-12T06:47:06Z</time>
      </trkpt>
      <trkpt lat="49.00161" lon="1.09613">
        <ele>80.41</ele>
        <time>2011-02-12T06:47:12Z</time>
      </trkpt>
      <trkpt lat="49.00162" lon="1.0963">
        <ele>78</ele>
        <time>2011-02-12T06:47:17Z</time>
      </trkpt>
      <trkpt lat="49.00162" lon="1.0964">
        <ele>76.08</ele>
        <time>2011-02-12T06:47:20Z</time>
      </trkpt>
      <trkpt lat="49.00162" lon="1.09651">
        <ele>74.64</ele>
        <time>2011-02-12T06:47:23Z</time>
      </trkpt>
      <trkpt lat="49.00163" lon="1.09664">
        <ele>73.68</ele>
        <time>2011-02-12T06:47:27Z</time>
      </trkpt>
      <trkpt lat="49.00166" lon="1.09678">
        <ele>71.76</ele>
        <time>2011-02-12T06:47:31Z</time>
      </trkpt>
      <trkpt lat="49.00171" lon="1.09715">
        <ele>68.39</ele>
        <time>2011-02-12T06:47:38Z</time>
      </trkpt>
      <trkpt lat="49.00194" lon="1.09765">
        <ele>68.39</ele>
        <time>2011-02-12T06:47:53Z</time>
      </trkpt>
      <trkpt lat="49.00219" lon="1.09808">
        <ele>68.39</ele>
        <time>2011-02-12T06:48:07Z</time>
      </trkpt>
      <trkpt lat="49.00234" lon="1.09834">
        <ele>68.39</ele>
        <time>2011-02-12T06:48:15Z</time>
      </trkpt>
      <trkpt lat="49.00238" lon="1.09889">
        <ele>67.43</ele>
        <time>2011-02-12T06:48:28Z</time>
      </trkpt>
      <trkpt lat="49.00216" lon="1.09922">
        <ele>67.43</ele>
        <time>2011-02-12T06:48:40Z</time>
      </trkpt>
      <trkpt lat="49.00196" lon="1.09938">
        <ele>67.43</ele>
        <time>2011-02-12T06:48:49Z</time>
      </trkpt>
      <trkpt lat="49.00166" lon="1.09965">
        <ele>66.47</ele>
        <time>2011-02-12T06:49:02Z</time>
      </trkpt>
      <trkpt lat="49.00143" lon="1.0999">
        <ele>66.47</ele>
        <time>2011-02-12T06:49:13Z</time>
      </trkpt>
      <trkpt lat="49.00113" lon="1.10016">
        <ele>66.47</ele>
        <time>2011-02-12T06:49:26Z</time>
      </trkpt>
      <trkpt lat="49.00089" lon="1.10038">
        <ele>66.47</ele>
        <time>2011-02-12T06:49:37Z</time>
      </trkpt>
      <trkpt lat="49.0006" lon="1.10055">
        <ele>66.95</ele>
        <time>2011-02-12T06:49:49Z</time>
      </trkpt>
      <trkpt lat="49.00032" lon="1.10064">
        <ele>66.95</ele>
        <time>2011-02-12T06:50:01Z</time>
      </trkpt>
      <trkpt lat="48.99994" lon="1.1008">
        <ele>67.43</ele>
        <time>2011-02-12T06:50:17Z</time>
      </trkpt>
      <trkpt lat="48.99964" lon="1.10098">
        <ele>67.43</ele>
        <time>2011-02-12T06:50:30Z</time>
      </trkpt>
      <trkpt lat="48.9995" lon="1.10106">
        <ele>66.95</ele>
        <time>2011-02-12T06:50:36Z</time>
      </trkpt>
      <trkpt lat="48.99939" lon="1.10082">
        <ele>66.95</ele>
        <time>2011-02-12T06:50:46Z</time>
      </trkpt>
      <trkpt lat="48.9993" lon="1.10048">
        <ele>66.47</ele>
        <time>2011-02-12T06:50:56Z</time>
      </trkpt>
      <trkpt lat="48.99917" lon="1.10009">
        <ele>65.99</ele>
        <time>2011-02-12T06:51:08Z</time>
      </trkpt>
      <trkpt lat="48.99902" lon="1.09969">
        <ele>66.95</ele>
        <time>2011-02-12T06:51:20Z</time>
      </trkpt>
      <trkpt lat="48.99886" lon="1.09922">
        <ele>66.47</ele>
        <time>2011-02-12T06:51:34Z</time>
      </trkpt>
      <trkpt lat="48.99868" lon="1.09876">
        <ele>66.47</ele>
        <time>2011-02-12T06:51:48Z</time>
      </trkpt>
      <trkpt lat="48.99853" lon="1.09836">
        <ele>65.99</ele>
        <time>2011-02-12T06:52:00Z</time>
      </trkpt>
      <trkpt lat="48.99841" lon="1.09801">
        <ele>66.47</ele>
        <time>2011-02-12T06:52:11Z</time>
      </trkpt>
      <trkpt lat="48.99829" lon="1.09743">
        <ele>66.95</ele>
        <time>2011-02-12T06:52:25Z</time>
      </trkpt>
      <trkpt lat="48.99824" lon="1.09694">
        <ele>67.43</ele>
        <time>2011-02-12T06:52:38Z</time>
      </trkpt>
      <trkpt lat="48.99823" lon="1.09652">
        <ele>67.43</ele>
        <time>2011-02-12T06:52:49Z</time>
      </trkpt>
      <trkpt lat="48.99817" lon="1.09603">
        <ele>66.95</ele>
        <time>2011-02-12T06:53:01Z</time>
      </trkpt>
      <trkpt lat="48.9981" lon="1.09559">
        <ele>66.95</ele>
        <time>2011-02-12T06:53:12Z</time>
      </trkpt>
      <trkpt lat="48.99792" lon="1.09502">
        <ele>67.43</ele>
        <time>2011-02-12T06:53:27Z</time>
      </trkpt>
      <trkpt lat="48.99776" lon="1.09462">
        <ele>66.47</ele>
        <time>2011-02-12T06:53:39Z</time>
      </trkpt>
      <trkpt lat="48.99762" lon="1.09421">
        <ele>66.95</ele>
        <time>2011-02-12T06:53:51Z</time>
      </trkpt>
      <trkpt lat="48.9975" lon="1.0938">
        <ele>66.95</ele>
        <time>2011-02-12T06:54:03Z</time>
      </trkpt>
      <trkpt lat="48.99737" lon="1.09329">
        <ele>66.95</ele>
        <time>2011-02-12T06:54:17Z</time>
      </trkpt>
      <trkpt lat="48.99725" lon="1.09281">
        <ele>66.47</ele>
        <time>2011-02-12T06:54:30Z</time>
      </trkpt>
      <trkpt lat="48.99713" lon="1.09233">
        <ele>67.43</ele>
        <time>2011-02-12T06:54:44Z</time>
      </trkpt>
      <trkpt lat="48.99703" lon="1.09188">
        <ele>67.43</ele>
        <time>2011-02-12T06:54:57Z</time>
      </trkpt>
      <trkpt lat="48.99697" lon="1.0917">
        <ele>67.91</ele>
        <time>2011-02-12T06:55:02Z</time>
      </trkpt>
      <trkpt lat="48.99689" lon="1.09141">
        <ele>67.91</ele>
        <time>2011-02-12T06:55:11Z</time>
      </trkpt>
      <trkpt lat="48.99672" lon="1.09099">
        <ele>67.91</ele>
        <time>2011-02-12T06:55:23Z</time>
      </trkpt>
      <trkpt lat="48.99666" lon="1.09068">
        <ele>67.91</ele>
        <time>2011-02-12T06:55:32Z</time>
      </trkpt>
      <trkpt lat="48.99658" lon="1.09014">
        <ele>68.39</ele>
        <time>2011-02-12T06:55:46Z</time>
      </trkpt>
      <trkpt lat="48.99644" lon="1.08969">
        <ele>67.91</ele>
        <time>2011-02-12T06:55:59Z</time>
      </trkpt>
      <trkpt lat="48.99631" lon="1.08929">
        <ele>67.91</ele>
        <time>2011-02-12T06:56:11Z</time>
      </trkpt>
      <trkpt lat="48.99617" lon="1.08887">
        <ele>68.39</ele>
        <time>2011-02-12T06:56:24Z</time>
      </trkpt>
      <trkpt lat="48.99599" lon="1.08833">
        <ele>68.87</ele>
        <time>2011-02-12T06:56:40Z</time>
      </trkpt>
      <trkpt lat="48.99588" lon="1.08793">
        <ele>68.39</ele>
        <time>2011-02-12T06:56:52Z</time>
      </trkpt>
      <trkpt lat="48.99577" lon="1.08753">
        <ele>68.87</ele>
        <time>2011-02-12T06:57:03Z</time>
      </trkpt>
      <trkpt lat="48.99561" lon="1.08701">
        <ele>68.87</ele>
        <time>2011-02-12T06:57:17Z</time>
      </trkpt>
      <trkpt lat="48.99548" lon="1.0865">
        <ele>68.39</ele>
        <time>2011-02-12T06:57:31Z</time>
      </trkpt>
      <trkpt lat="48.99537" lon="1.08597">
        <ele>69.35</ele>
        <time>2011-02-12T06:57:44Z</time>
      </trkpt>
      <trkpt lat="48.9953" lon="1.08551">
        <ele>68.87</ele>
        <time>2011-02-12T06:57:56Z</time>
      </trkpt>
      <trkpt lat="48.99524" lon="1.08505">
        <ele>68.87</ele>
        <time>2011-02-12T06:58:08Z</time>
      </trkpt>
      <trkpt lat="48.99516" lon="1.08453">
        <ele>69.35</ele>
        <time>2011-02-12T06:58:22Z</time>
      </trkpt>
      <trkpt lat="48.99509" lon="1.0841">
        <ele>69.35</ele>
        <time>2011-02-12T06:58:33Z</time>
      </trkpt>
      <trkpt lat="48.99505" lon="1.0837">
        <ele>68.87</ele>
        <time>2011-02-12T06:58:44Z</time>
      </trkpt>
      <trkpt lat="48.99496" lon="1.08331">
        <ele>69.35</ele>
        <time>2011-02-12T06:58:56Z</time>
      </trkpt>
      <trkpt lat="48.99487" lon="1.0829">
        <ele>68.87</ele>
        <time>2011-02-12T06:59:08Z</time>
      </trkpt>
      <trkpt lat="48.99479" lon="1.08252">
        <ele>68.39</ele>
        <time>2011-02-12T06:59:20Z</time>
      </trkpt>
      <trkpt lat="48.99469" lon="1.08209">
        <ele>69.35</ele>
        <time>2011-02-12T06:59:32Z</time>
      </trkpt>
      <trkpt lat="48.99463" lon="1.0817">
        <ele>69.35</ele>
        <time>2011-02-12T06:59:43Z</time>
      </trkpt>
      <trkpt lat="48.99456" lon="1.08125">
        <ele>69.83</ele>
        <time>2011-02-12T06:59:56Z</time>
      </trkpt>
      <trkpt lat="48.99449" lon="1.08082">
        <ele>69.83</ele>
        <time>2011-02-12T07:00:08Z</time>
      </trkpt>
      <trkpt lat="48.99447" lon="1.08038">
        <ele>69.83</ele>
        <time>2011-02-12T07:00:20Z</time>
      </trkpt>
      <trkpt lat="48.99448" lon="1.08008">
        <ele>70.31</ele>
        <time>2011-02-12T07:00:28Z</time>
      </trkpt>
      <trkpt lat="48.99448" lon="1.08004">
        <ele>69.35</ele>
        <time>2011-02-12T07:00:29Z</time>
      </trkpt>
      <trkpt lat="48.99449" lon="1.0798">
        <ele>70.31</ele>
        <time>2011-02-12T07:00:36Z</time>
      </trkpt>
      <trkpt lat="48.99448" lon="1.07934">
        <ele>69.83</ele>
        <time>2011-02-12T07:00:48Z</time>
      </trkpt>
      <trkpt lat="48.99449" lon="1.07899">
        <ele>69.83</ele>
        <time>2011-02-12T07:00:59Z</time>
      </trkpt>
      <trkpt lat="48.99452" lon="1.0786">
        <ele>69.83</ele>
        <time>2011-02-12T07:01:10Z</time>
      </trkpt>
      <trkpt lat="48.99452" lon="1.0781">
        <ele>69.83</ele>
        <time>2011-02-12T07:01:24Z</time>
      </trkpt>
      <trkpt lat="48.99449" lon="1.07758">
        <ele>69.83</ele>
        <time>2011-02-12T07:01:37Z</time>
      </trkpt>
      <trkpt lat="48.99449" lon="1.07754">
        <ele>69.83</ele>
        <time>2011-02-12T07:01:38Z</time>
      </trkpt>
      <trkpt lat="48.99462" lon="1.07716">
        <ele>69.83</ele>
        <time>2011-02-12T07:01:51Z</time>
      </trkpt>
      <trkpt lat="48.99491" lon="1.07694">
        <ele>69.83</ele>
        <time>2011-02-12T07:02:05Z</time>
      </trkpt>
      <trkpt lat="48.99503" lon="1.07685">
        <ele>71.27</ele>
        <time>2011-02-12T07:02:11Z</time>
      </trkpt>
      <trkpt lat="48.99527" lon="1.07669">
        <ele>70.31</ele>
        <time>2011-02-12T07:02:22Z</time>
      </trkpt>
      <trkpt lat="48.99557" lon="1.07653">
        <ele>69.35</ele>
        <time>2011-02-12T07:02:34Z</time>
      </trkpt>
      <trkpt lat="48.99564" lon="1.07649">
        <ele>69.35</ele>
        <time>2011-02-12T07:02:37Z</time>
      </trkpt>
      <trkpt lat="48.99583" lon="1.07616">
        <ele>69.35</ele>
        <time>2011-02-12T07:02:48Z</time>
      </trkpt>
      <trkpt lat="48.99585" lon="1.07573">
        <ele>69.83</ele>
        <time>2011-02-12T07:03:00Z</time>
      </trkpt>
      <trkpt lat="48.99595" lon="1.07539">
        <ele>69.35</ele>
        <time>2011-02-12T07:03:10Z</time>
      </trkpt>
      <trkpt lat="48.99625" lon="1.07521">
        <ele>69.35</ele>
        <time>2011-02-12T07:03:24Z</time>
      </trkpt>
      <trkpt lat="48.99652" lon="1.07503">
        <ele>70.31</ele>
        <time>2011-02-12T07:03:36Z</time>
      </trkpt>
      <trkpt lat="48.99681" lon="1.0748">
        <ele>71.76</ele>
        <time>2011-02-12T07:03:51Z</time>
      </trkpt>
      <trkpt lat="48.99707" lon="1.0745">
        <ele>70.79</ele>
        <time>2011-02-12T07:04:04Z</time>
      </trkpt>
      <trkpt lat="48.99738" lon="1.07438">
        <ele>70.79</ele>
        <time>2011-02-12T07:04:16Z</time>
      </trkpt>
      <trkpt lat="48.99759" lon="1.07419">
        <ele>70.79</ele>
        <time>2011-02-12T07:04:27Z</time>
      </trkpt>
      <trkpt lat="48.99784" lon="1.07398">
        <ele>71.76</ele>
        <time>2011-02-12T07:04:39Z</time>
      </trkpt>
      <trkpt lat="48.99804" lon="1.07382">
        <ele>71.76</ele>
        <time>2011-02-12T07:04:50Z</time>
      </trkpt>
      <trkpt lat="48.99833" lon="1.07371">
        <ele>72.72</ele>
        <time>2011-02-12T07:05:00Z</time>
      </trkpt>
      <trkpt lat="48.99859" lon="1.07386">
        <ele>74.64</ele>
        <time>2011-02-12T07:05:11Z</time>
      </trkpt>
      <trkpt lat="48.99876" lon="1.07402">
        <ele>75.6</ele>
        <time>2011-02-12T07:05:22Z</time>
      </trkpt>
      <trkpt lat="48.99885" lon="1.07408">
        <ele>76.56</ele>
        <time>2011-02-12T07:05:28Z</time>
      </trkpt>
      <trkpt lat="48.99905" lon="1.0742">
        <ele>77.52</ele>
        <time>2011-02-12T07:05:39Z</time>
      </trkpt>
      <trkpt lat="48.99921" lon="1.07429">
        <ele>78.97</ele>
        <time>2011-02-12T07:05:52Z</time>
      </trkpt>
      <trkpt lat="48.9995" lon="1.07427">
        <ele>81.37</ele>
        <time>2011-02-12T07:06:08Z</time>
      </trkpt>
      <trkpt lat="48.99979" lon="1.07427">
        <ele>83.77</ele>
        <time>2011-02-12T07:06:21Z</time>
      </trkpt>
      <trkpt lat="48.9999" lon="1.07428">
        <ele>84.25</ele>
        <time>2011-02-12T07:06:27Z</time>
      </trkpt>
      <trkpt lat="49.00011" lon="1.07435">
        <ele>85.69</ele>
        <time>2011-02-12T07:06:40Z</time>
      </trkpt>
      <trkpt lat="49.00032" lon="1.07418">
        <ele>87.62</ele>
        <time>2011-02-12T07:06:54Z</time>
      </trkpt>
      <trkpt lat="49.00035" lon="1.07393">
        <ele>89.06</ele>
        <time>2011-02-12T07:07:04Z</time>
      </trkpt>
      <trkpt lat="49.00026" lon="1.07364">
        <ele>91.46</ele>
        <time>2011-02-12T07:07:16Z</time>
      </trkpt>
      <trkpt lat="49.00008" lon="1.07335">
        <ele>93.87</ele>
        <time>2011-02-12T07:07:34Z</time>
      </trkpt>
      <trkpt lat="49.00004" lon="1.073">
        <ele>96.27</ele>
        <time>2011-02-12T07:07:49Z</time>
      </trkpt>
      <trkpt lat="49.0001" lon="1.07263">
        <ele>99.15</ele>
        <time>2011-02-12T07:08:07Z</time>
      </trkpt>
      <trkpt lat="49.00022" lon="1.07227">
        <ele>103</ele>
        <time>2011-02-12T07:08:25Z</time>
      </trkpt>
      <trkpt lat="49.00027" lon="1.07212">
        <ele>103.96</ele>
        <time>2011-02-12T07:08:33Z</time>
      </trkpt>
      <trkpt lat="49.00046" lon="1.072">
        <ele>106.84</ele>
        <time>2011-02-12T07:08:48Z</time>
      </trkpt>
      <trkpt lat="49.00061" lon="1.07175">
        <ele>109.25</ele>
        <time>2011-02-12T07:09:02Z</time>
      </trkpt>
      <trkpt lat="49.00065" lon="1.07148">
        <ele>112.13</ele>
        <time>2011-02-12T07:09:16Z</time>
      </trkpt>
      <trkpt lat="49.00068" lon="1.07125">
        <ele>114.53</ele>
        <time>2011-02-12T07:09:26Z</time>
      </trkpt>
      <trkpt lat="49.00067" lon="1.07095">
        <ele>115.98</ele>
        <time>2011-02-12T07:09:37Z</time>
      </trkpt>
      <trkpt lat="49.0007" lon="1.07079">
        <ele>116.94</ele>
        <time>2011-02-12T07:09:42Z</time>
      </trkpt>
      <trkpt lat="49.00074" lon="1.07067">
        <ele>116.94</ele>
        <time>2011-02-12T07:09:47Z</time>
      </trkpt>
      <trkpt lat="49.00083" lon="1.07036">
        <ele>117.9</ele>
        <time>2011-02-12T07:09:58Z</time>
      </trkpt>
      <trkpt lat="49.00089" lon="1.07024">
        <ele>117.9</ele>
        <time>2011-02-12T07:10:04Z</time>
      </trkpt>
      <trkpt lat="49.00096" lon="1.07017">
        <ele>118.38</ele>
        <time>2011-02-12T07:10:09Z</time>
      </trkpt>
      <trkpt lat="49.00106" lon="1.07008">
        <ele>119.34</ele>
        <time>2011-02-12T07:10:15Z</time>
      </trkpt>
      <trkpt lat="49.00124" lon="1.06996">
        <ele>120.3</ele>
        <time>2011-02-12T07:10:26Z</time>
      </trkpt>
      <trkpt lat="49.00153" lon="1.06985">
        <ele>121.26</ele>
        <time>2011-02-12T07:10:40Z</time>
      </trkpt>
      <trkpt lat="49.0018" lon="1.06969">
        <ele>121.74</ele>
        <time>2011-02-12T07:10:54Z</time>
      </trkpt>
      <trkpt lat="49.00209" lon="1.0696">
        <ele>122.22</ele>
        <time>2011-02-12T07:11:07Z</time>
      </trkpt>
      <trkpt lat="49.00241" lon="1.06947">
        <ele>122.22</ele>
        <time>2011-02-12T07:11:22Z</time>
      </trkpt>
      <trkpt lat="49.00274" lon="1.06935">
        <ele>122.71</ele>
        <time>2011-02-12T07:11:37Z</time>
      </trkpt>
      <trkpt lat="49.00303" lon="1.06909">
        <ele>122.22</ele>
        <time>2011-02-12T07:11:51Z</time>
      </trkpt>
      <trkpt lat="49.00328" lon="1.06868">
        <ele>123.19</ele>
        <time>2011-02-12T07:12:07Z</time>
      </trkpt>
      <trkpt lat="49.00338" lon="1.0684">
        <ele>123.67</ele>
        <time>2011-02-12T07:12:17Z</time>
      </trkpt>
      <trkpt lat="49.00362" lon="1.06804">
        <ele>123.67</ele>
        <time>2011-02-12T07:12:31Z</time>
      </trkpt>
      <trkpt lat="49.0039" lon="1.06782">
        <ele>123.67</ele>
        <time>2011-02-12T07:12:44Z</time>
      </trkpt>
      <trkpt lat="49.00413" lon="1.0676">
        <ele>123.19</ele>
        <time>2011-02-12T07:12:57Z</time>
      </trkpt>
      <trkpt lat="49.0043" lon="1.06743">
        <ele>122.22</ele>
        <time>2011-02-12T07:13:07Z</time>
      </trkpt>
      <trkpt lat="49.00467" lon="1.0672">
        <ele>121.26</ele>
        <time>2011-02-12T07:13:23Z</time>
      </trkpt>
      <trkpt lat="49.00502" lon="1.06704">
        <ele>119.34</ele>
        <time>2011-02-12T07:13:36Z</time>
      </trkpt>
      <trkpt lat="49.00536" lon="1.06687">
        <ele>118.38</ele>
        <time>2011-02-12T07:13:50Z</time>
      </trkpt>
      <trkpt lat="49.00563" lon="1.0668">
        <ele>117.9</ele>
        <time>2011-02-12T07:14:01Z</time>
      </trkpt>
      <trkpt lat="49.00588" lon="1.06669">
        <ele>118.38</ele>
        <time>2011-02-12T07:14:12Z</time>
      </trkpt>
      <trkpt lat="49.00617" lon="1.06659">
        <ele>118.38</ele>
        <time>2011-02-12T07:14:24Z</time>
      </trkpt>
      <trkpt lat="49.00655" lon="1.06647">
        <ele>119.34</ele>
        <time>2011-02-12T07:14:40Z</time>
      </trkpt>
      <trkpt lat="49.00689" lon="1.0663">
        <ele>120.78</ele>
        <time>2011-02-12T07:14:56Z</time>
      </trkpt>
      <trkpt lat="49.00713" lon="1.06594">
        <ele>121.26</ele>
        <time>2011-02-12T07:15:10Z</time>
      </trkpt>
      <trkpt lat="49.00737" lon="1.06559">
        <ele>121.26</ele>
        <time>2011-02-12T07:15:25Z</time>
      </trkpt>
      <trkpt lat="49.00763" lon="1.06523">
        <ele>121.74</ele>
        <time>2011-02-12T07:15:40Z</time>
      </trkpt>
      <trkpt lat="49.00785" lon="1.06493">
        <ele>121.26</ele>
        <time>2011-02-12T07:15:52Z</time>
      </trkpt>
      <trkpt lat="49.00815" lon="1.0647">
        <ele>120.78</ele>
        <time>2011-02-12T07:16:06Z</time>
      </trkpt>
      <trkpt lat="49.00848" lon="1.06454">
        <ele>120.3</ele>
        <time>2011-02-12T07:16:22Z</time>
      </trkpt>
      <trkpt lat="49.00885" lon="1.06433">
        <ele>119.34</ele>
        <time>2011-02-12T07:16:37Z</time>
      </trkpt>
      <trkpt lat="49.00917" lon="1.06415">
        <ele>118.38</ele>
        <time>2011-02-12T07:16:50Z</time>
      </trkpt>
      <trkpt lat="49.00946" lon="1.06388">
        <ele>116.94</ele>
        <time>2011-02-12T07:17:02Z</time>
      </trkpt>
      <trkpt lat="49.00974" lon="1.06355">
        <ele>114.05</ele>
        <time>2011-02-12T07:17:14Z</time>
      </trkpt>
      <trkpt lat="49.01004" lon="1.06316">
        <ele>112.61</ele>
        <time>2011-02-12T07:17:27Z</time>
      </trkpt>
      <trkpt lat="49.01027" lon="1.06267">
        <ele>111.65</ele>
        <time>2011-02-12T07:17:40Z</time>
      </trkpt>
      <trkpt lat="49.01049" lon="1.06223">
        <ele>110.69</ele>
        <time>2011-02-12T07:17:53Z</time>
      </trkpt>
      <trkpt lat="49.01072" lon="1.06194">
        <ele>111.65</ele>
        <time>2011-02-12T07:18:06Z</time>
      </trkpt>
      <trkpt lat="49.01111" lon="1.06168">
        <ele>113.09</ele>
        <time>2011-02-12T07:18:24Z</time>
      </trkpt>
      <trkpt lat="49.01145" lon="1.06146">
        <ele>113.57</ele>
        <time>2011-02-12T07:18:40Z</time>
      </trkpt>
      <trkpt lat="49.01182" lon="1.06125">
        <ele>114.53</ele>
        <time>2011-02-12T07:18:57Z</time>
      </trkpt>
      <trkpt lat="49.0122" lon="1.06104">
        <ele>115.01</ele>
        <time>2011-02-12T07:19:15Z</time>
      </trkpt>
      <trkpt lat="49.01258" lon="1.06094">
        <ele>115.01</ele>
        <time>2011-02-12T07:19:32Z</time>
      </trkpt>
      <trkpt lat="49.01291" lon="1.06091">
        <ele>115.01</ele>
        <time>2011-02-12T07:19:47Z</time>
      </trkpt>
      <trkpt lat="49.0133" lon="1.06076">
        <ele>114.53</ele>
        <time>2011-02-12T07:20:03Z</time>
      </trkpt>
      <trkpt lat="49.01366" lon="1.06049">
        <ele>113.57</ele>
        <time>2011-02-12T07:20:18Z</time>
      </trkpt>
      <trkpt lat="49.01386" lon="1.06004">
        <ele>112.13</ele>
        <time>2011-02-12T07:20:31Z</time>
      </trkpt>
      <trkpt lat="49.01392" lon="1.05943">
        <ele>110.21</ele>
        <time>2011-02-12T07:20:46Z</time>
      </trkpt>
      <trkpt lat="49.01405" lon="1.059">
        <ele>106.84</ele>
        <time>2011-02-12T07:20:58Z</time>
      </trkpt>
      <trkpt lat="49.0141" lon="1.05898">
        <ele>105.88</ele>
        <time>2011-02-12T07:21:00Z</time>
      </trkpt>
      <trkpt lat="49.01432" lon="1.05927">
        <ele>103.96</ele>
        <time>2011-02-12T07:21:10Z</time>
      </trkpt>
      <trkpt lat="49.01442" lon="1.05976">
        <ele>101.08</ele>
        <time>2011-02-12T07:21:22Z</time>
      </trkpt>
      <trkpt lat="49.01455" lon="1.06023">
        <ele>98.19</ele>
        <time>2011-02-12T07:21:32Z</time>
      </trkpt>
      <trkpt lat="49.01462" lon="1.06042">
        <ele>96.27</ele>
        <time>2011-02-12T07:21:36Z</time>
      </trkpt>
      <trkpt lat="49.01479" lon="1.06093">
        <ele>93.87</ele>
        <time>2011-02-12T07:21:48Z</time>
      </trkpt>
      <trkpt lat="49.01502" lon="1.06144">
        <ele>91.94</ele>
        <time>2011-02-12T07:22:02Z</time>
      </trkpt>
      <trkpt lat="49.01524" lon="1.06183">
        <ele>92.42</ele>
        <time>2011-02-12T07:22:16Z</time>
      </trkpt>
      <trkpt lat="49.0153" lon="1.06193">
        <ele>92.9</ele>
        <time>2011-02-12T07:22:20Z</time>
      </trkpt>
      <trkpt lat="49.01554" lon="1.06216">
        <ele>94.83</ele>
        <time>2011-02-12T07:22:33Z</time>
      </trkpt>
      <trkpt lat="49.01571" lon="1.06231">
        <ele>96.27</ele>
        <time>2011-02-12T07:22:42Z</time>
      </trkpt>
      <trkpt lat="49.01592" lon="1.06239">
        <ele>99.63</ele>
        <time>2011-02-12T07:22:55Z</time>
      </trkpt>
      <trkpt lat="49.01596" lon="1.06239">
        <ele>99.15</ele>
        <time>2011-02-12T07:22:57Z</time>
      </trkpt>
      <trkpt lat="49.01616" lon="1.06228">
        <ele>103</ele>
        <time>2011-02-12T07:23:08Z</time>
      </trkpt>
      <trkpt lat="49.01625" lon="1.06207">
        <ele>104.92</ele>
        <time>2011-02-12T07:23:17Z</time>
      </trkpt>
      <trkpt lat="49.01642" lon="1.06173">
        <ele>107.81</ele>
        <time>2011-02-12T07:23:32Z</time>
      </trkpt>
      <trkpt lat="49.01663" lon="1.06152">
        <ele>110.21</ele>
        <time>2011-02-12T07:23:47Z</time>
      </trkpt>
      <trkpt lat="49.01694" lon="1.06138">
        <ele>112.61</ele>
        <time>2011-02-12T07:24:03Z</time>
      </trkpt>
      <trkpt lat="49.01723" lon="1.06133">
        <ele>113.57</ele>
        <time>2011-02-12T07:24:16Z</time>
      </trkpt>
      <trkpt lat="49.01759" lon="1.0613">
        <ele>113.57</ele>
        <time>2011-02-12T07:24:31Z</time>
      </trkpt>
      <trkpt lat="49.01794" lon="1.06127">
        <ele>113.57</ele>
        <time>2011-02-12T07:24:45Z</time>
      </trkpt>
      <trkpt lat="49.01801" lon="1.06124">
        <ele>113.57</ele>
        <time>2011-02-12T07:24:48Z</time>
      </trkpt>
      <trkpt lat="49.01809" lon="1.06127">
        <ele>113.57</ele>
        <time>2011-02-12T07:24:52Z</time>
      </trkpt>
      <trkpt lat="49.01815" lon="1.06178">
        <ele>113.57</ele>
        <time>2011-02-12T07:25:05Z</time>
      </trkpt>
      <trkpt lat="49.01826" lon="1.0623">
        <ele>113.09</ele>
        <time>2011-02-12T07:25:20Z</time>
      </trkpt>
      <trkpt lat="49.01836" lon="1.06289">
        <ele>112.13</ele>
        <time>2011-02-12T07:25:36Z</time>
      </trkpt>
      <trkpt lat="49.01843" lon="1.06342">
        <ele>112.61</ele>
        <time>2011-02-12T07:25:51Z</time>
      </trkpt>
      <trkpt lat="49.0185" lon="1.0639">
        <ele>112.61</ele>
        <time>2011-02-12T07:26:05Z</time>
      </trkpt>
      <trkpt lat="49.01858" lon="1.06444">
        <ele>111.65</ele>
        <time>2011-02-12T07:26:20Z</time>
      </trkpt>
      <trkpt lat="49.01861" lon="1.06491">
        <ele>111.17</ele>
        <time>2011-02-12T07:26:33Z</time>
      </trkpt>
      <trkpt lat="49.01861" lon="1.06541">
        <ele>110.21</ele>
        <time>2011-02-12T07:26:46Z</time>
      </trkpt>
      <trkpt lat="49.0186" lon="1.06591">
        <ele>111.17</ele>
        <time>2011-02-12T07:27:00Z</time>
      </trkpt>
      <trkpt lat="49.01862" lon="1.06648">
        <ele>110.69</ele>
        <time>2011-02-12T07:27:15Z</time>
      </trkpt>
      <trkpt lat="49.01863" lon="1.06692">
        <ele>109.73</ele>
        <time>2011-02-12T07:27:27Z</time>
      </trkpt>
      <trkpt lat="49.01864" lon="1.06754">
        <ele>109.25</ele>
        <time>2011-02-12T07:27:43Z</time>
      </trkpt>
      <trkpt lat="49.01867" lon="1.06811">
        <ele>106.36</ele>
        <time>2011-02-12T07:27:58Z</time>
      </trkpt>
      <trkpt lat="49.01867" lon="1.06854">
        <ele>105.88</ele>
        <time>2011-02-12T07:28:08Z</time>
      </trkpt>
      <trkpt lat="49.01867" lon="1.06911">
        <ele>103.96</ele>
        <time>2011-02-12T07:28:22Z</time>
      </trkpt>
      <trkpt lat="49.01867" lon="1.06965">
        <ele>102.52</ele>
        <time>2011-02-12T07:28:35Z</time>
      </trkpt>
      <trkpt lat="49.01863" lon="1.07024">
        <ele>101.56</ele>
        <time>2011-02-12T07:28:49Z</time>
      </trkpt>
      <trkpt lat="49.01859" lon="1.07077">
        <ele>99.63</ele>
        <time>2011-02-12T07:29:02Z</time>
      </trkpt>
      <trkpt lat="49.01858" lon="1.07128">
        <ele>96.75</ele>
        <time>2011-02-12T07:29:14Z</time>
      </trkpt>
      <trkpt lat="49.01858" lon="1.07194">
        <ele>92.9</ele>
        <time>2011-02-12T07:29:28Z</time>
      </trkpt>
      <trkpt lat="49.01859" lon="1.07253">
        <ele>90.02</ele>
        <time>2011-02-12T07:29:40Z</time>
      </trkpt>
      <trkpt lat="49.0186" lon="1.07315">
        <ele>87.62</ele>
        <time>2011-02-12T07:29:54Z</time>
      </trkpt>
      <trkpt lat="49.0186" lon="1.07374">
        <ele>86.18</ele>
        <time>2011-02-12T07:30:07Z</time>
      </trkpt>
      <trkpt lat="49.01866" lon="1.07421">
        <ele>87.14</ele>
        <time>2011-02-12T07:30:20Z</time>
      </trkpt>
      <trkpt lat="49.01885" lon="1.07465">
        <ele>85.21</ele>
        <time>2011-02-12T07:30:34Z</time>
      </trkpt>
      <trkpt lat="49.01908" lon="1.0751">
        <ele>83.77</ele>
        <time>2011-02-12T07:30:47Z</time>
      </trkpt>
      <trkpt lat="49.01926" lon="1.07548">
        <ele>81.85</ele>
        <time>2011-02-12T07:30:58Z</time>
      </trkpt>
      <trkpt lat="49.01945" lon="1.07587">
        <ele>82.81</ele>
        <time>2011-02-12T07:31:10Z</time>
      </trkpt>
      <trkpt lat="49.01965" lon="1.07624">
        <ele>82.33</ele>
        <time>2011-02-12T07:31:23Z</time>
      </trkpt>
      <trkpt lat="49.0198" lon="1.07658">
        <ele>82.81</ele>
        <time>2011-02-12T07:31:35Z</time>
      </trkpt>
      <trkpt lat="49.01996" lon="1.07692">
        <ele>82.33</ele>
        <time>2011-02-12T07:31:47Z</time>
      </trkpt>
      <trkpt lat="49.02019" lon="1.07738">
        <ele>81.85</ele>
        <time>2011-02-12T07:32:03Z</time>
      </trkpt>
      <trkpt lat="49.02029" lon="1.07766">
        <ele>82.81</ele>
        <time>2011-02-12T07:32:12Z</time>
      </trkpt>
      <trkpt lat="49.02025" lon="1.0779">
        <ele>82.81</ele>
        <time>2011-02-12T07:32:20Z</time>
      </trkpt>
      <trkpt lat="49.02006" lon="1.07817">
        <ele>86.18</ele>
        <time>2011-02-12T07:32:36Z</time>
      </trkpt>
      <trkpt lat="49.01988" lon="1.07825">
        <ele>88.58</ele>
        <time>2011-02-12T07:32:49Z</time>
      </trkpt>
      <trkpt lat="49.01963" lon="1.07823">
        <ele>90.02</ele>
        <time>2011-02-12T07:33:03Z</time>
      </trkpt>
      <trkpt lat="49.01955" lon="1.0782">
        <ele>91.46</ele>
        <time>2011-02-12T07:33:09Z</time>
      </trkpt>
      <trkpt lat="49.01951" lon="1.07819">
        <ele>92.42</ele>
        <time>2011-02-12T07:33:12Z</time>
      </trkpt>
      <trkpt lat="49.01948" lon="1.07818">
        <ele>91.94</ele>
        <time>2011-02-12T07:33:14Z</time>
      </trkpt>
      <trkpt lat="49.0193" lon="1.07814">
        <ele>93.87</ele>
        <time>2011-02-12T07:33:24Z</time>
      </trkpt>
      <trkpt lat="49.01927" lon="1.07814">
        <ele>94.83</ele>
        <time>2011-02-12T07:33:26Z</time>
      </trkpt>
      <trkpt lat="49.01911" lon="1.07819">
        <ele>96.27</ele>
        <time>2011-02-12T07:33:38Z</time>
      </trkpt>
      <trkpt lat="49.01901" lon="1.07821">
        <ele>97.23</ele>
        <time>2011-02-12T07:33:45Z</time>
      </trkpt>
      <trkpt lat="49.01882" lon="1.07827">
        <ele>100.6</ele>
        <time>2011-02-12T07:33:59Z</time>
      </trkpt>
      <trkpt lat="49.01863" lon="1.07842">
        <ele>103</ele>
        <time>2011-02-12T07:34:11Z</time>
      </trkpt>
      <trkpt lat="49.01851" lon="1.07847">
        <ele>103.96</ele>
        <time>2011-02-12T07:34:23Z</time>
      </trkpt>
      <trkpt lat="49.01843" lon="1.07848">
        <ele>105.88</ele>
        <time>2011-02-12T07:34:29Z</time>
      </trkpt>
      <trkpt lat="49.01817" lon="1.07855">
        <ele>107.81</ele>
        <time>2011-02-12T07:34:43Z</time>
      </trkpt>
      <trkpt lat="49.01801" lon="1.07861">
        <ele>109.25</ele>
        <time>2011-02-12T07:34:55Z</time>
      </trkpt>
      <trkpt lat="49.01786" lon="1.07871">
        <ele>111.65</ele>
        <time>2011-02-12T07:35:05Z</time>
      </trkpt>
      <trkpt lat="49.01784" lon="1.07887">
        <ele>111.17</ele>
        <time>2011-02-12T07:35:12Z</time>
      </trkpt>
      <trkpt lat="49.01786" lon="1.07896">
        <ele>111.17</ele>
        <time>2011-02-12T07:35:15Z</time>
      </trkpt>
      <trkpt lat="49.01787" lon="1.07914">
        <ele>112.13</ele>
        <time>2011-02-12T07:35:21Z</time>
      </trkpt>
      <trkpt lat="49.0179" lon="1.07927">
        <ele>111.65</ele>
        <time>2011-02-12T07:35:26Z</time>
      </trkpt>
      <trkpt lat="49.01793" lon="1.07937">
        <ele>112.61</ele>
        <time>2011-02-12T07:35:30Z</time>
      </trkpt>
      <trkpt lat="49.01797" lon="1.0795">
        <ele>112.61</ele>
        <time>2011-02-12T07:35:35Z</time>
      </trkpt>
      <trkpt lat="49.01803" lon="1.07977">
        <ele>113.57</ele>
        <time>2011-02-12T07:35:45Z</time>
      </trkpt>
      <trkpt lat="49.01805" lon="1.07989">
        <ele>113.57</ele>
        <time>2011-02-12T07:35:49Z</time>
      </trkpt>
      <trkpt lat="49.01806" lon="1.07995">
        <ele>113.57</ele>
        <time>2011-02-12T07:35:51Z</time>
      </trkpt>
      <trkpt lat="49.0181" lon="1.08017">
        <ele>113.57</ele>
        <time>2011-02-12T07:35:58Z</time>
      </trkpt>
      <trkpt lat="49.01812" lon="1.08027">
        <ele>114.05</ele>
        <time>2011-02-12T07:36:01Z</time>
      </trkpt>
      <trkpt lat="49.01821" lon="1.08046">
        <ele>114.53</ele>
        <time>2011-02-12T07:36:08Z</time>
      </trkpt>
      <trkpt lat="49.01831" lon="1.08085">
        <ele>115.5</ele>
        <time>2011-02-12T07:36:21Z</time>
      </trkpt>
      <trkpt lat="49.01837" lon="1.08103">
        <ele>116.94</ele>
        <time>2011-02-12T07:36:28Z</time>
      </trkpt>
      <trkpt lat="49.01839" lon="1.08116">
        <ele>116.46</ele>
        <time>2011-02-12T07:36:33Z</time>
      </trkpt>
      <trkpt lat="49.01845" lon="1.08134">
        <ele>116.94</ele>
        <time>2011-02-12T07:36:39Z</time>
      </trkpt>
      <trkpt lat="49.01852" lon="1.08153">
        <ele>116.94</ele>
        <time>2011-02-12T07:36:46Z</time>
      </trkpt>
      <trkpt lat="49.01855" lon="1.0817">
        <ele>117.42</ele>
        <time>2011-02-12T07:36:51Z</time>
      </trkpt>
      <trkpt lat="49.0186" lon="1.08188">
        <ele>116.94</ele>
        <time>2011-02-12T07:36:58Z</time>
      </trkpt>
      <trkpt lat="49.01871" lon="1.08231">
        <ele>117.9</ele>
        <time>2011-02-12T07:37:10Z</time>
      </trkpt>
      <trkpt lat="49.01878" lon="1.08277">
        <ele>118.38</ele>
        <time>2011-02-12T07:37:23Z</time>
      </trkpt>
      <trkpt lat="49.01887" lon="1.08315">
        <ele>117.9</ele>
        <time>2011-02-12T07:37:35Z</time>
      </trkpt>
      <trkpt lat="49.0189" lon="1.08326">
        <ele>118.86</ele>
        <time>2011-02-12T07:37:38Z</time>
      </trkpt>
      <trkpt lat="49.01903" lon="1.08363">
        <ele>118.38</ele>
        <time>2011-02-12T07:37:51Z</time>
      </trkpt>
      <trkpt lat="49.01911" lon="1.08402">
        <ele>117.9</ele>
        <time>2011-02-12T07:38:03Z</time>
      </trkpt>
      <trkpt lat="49.01916" lon="1.08426">
        <ele>117.9</ele>
        <time>2011-02-12T07:38:09Z</time>
      </trkpt>
      <trkpt lat="49.01926" lon="1.08483">
        <ele>116.94</ele>
        <time>2011-02-12T07:38:24Z</time>
      </trkpt>
      <trkpt lat="49.01935" lon="1.08518">
        <ele>116.94</ele>
        <time>2011-02-12T07:38:36Z</time>
      </trkpt>
      <trkpt lat="49.01937" lon="1.08524">
        <ele>117.42</ele>
        <time>2011-02-12T07:38:38Z</time>
      </trkpt>
      <trkpt lat="49.01943" lon="1.08552">
        <ele>116.94</ele>
        <time>2011-02-12T07:38:47Z</time>
      </trkpt>
      <trkpt lat="49.01945" lon="1.08557">
        <ele>116.94</ele>
        <time>2011-02-12T07:38:49Z</time>
      </trkpt>
      <trkpt lat="49.0195" lon="1.08571">
        <ele>116.46</ele>
        <time>2011-02-12T07:38:55Z</time>
      </trkpt>
      <trkpt lat="49.01958" lon="1.08617">
        <ele>116.46</ele>
        <time>2011-02-12T07:39:07Z</time>
      </trkpt>
      <trkpt lat="49.01973" lon="1.08664">
        <ele>116.46</ele>
        <time>2011-02-12T07:39:21Z</time>
      </trkpt>
      <trkpt lat="49.01984" lon="1.08701">
        <ele>115.5</ele>
        <time>2011-02-12T07:39:32Z</time>
      </trkpt>
      <trkpt lat="49.01995" lon="1.08746">
        <ele>115.01</ele>
        <time>2011-02-12T07:39:46Z</time>
      </trkpt>
      <trkpt lat="49.02001" lon="1.08769">
        <ele>115.5</ele>
        <time>2011-02-12T07:39:53Z</time>
      </trkpt>
      <trkpt lat="49.02002" lon="1.08776">
        <ele>115.01</ele>
        <time>2011-02-12T07:39:55Z</time>
      </trkpt>
      <trkpt lat="49.02012" lon="1.08809">
        <ele>115.5</ele>
        <time>2011-02-12T07:40:05Z</time>
      </trkpt>
      <trkpt lat="49.02014" lon="1.08826">
        <ele>114.53</ele>
        <time>2011-02-12T07:40:09Z</time>
      </trkpt>
      <trkpt lat="49.02023" lon="1.0887">
        <ele>115.01</ele>
        <time>2011-02-12T07:40:22Z</time>
      </trkpt>
      <trkpt lat="49.02035" lon="1.08918">
        <ele>114.05</ele>
        <time>2011-02-12T07:40:35Z</time>
      </trkpt>
      <trkpt lat="49.02041" lon="1.08945">
        <ele>114.05</ele>
        <time>2011-02-12T07:40:44Z</time>
      </trkpt>
      <trkpt lat="49.0205" lon="1.08979">
        <ele>113.09</ele>
        <time>2011-02-12T07:40:53Z</time>
      </trkpt>
      <trkpt lat="49.02063" lon="1.09014">
        <ele>112.61</ele>
        <time>2011-02-12T07:41:05Z</time>
      </trkpt>
      <trkpt lat="49.0207" lon="1.09049">
        <ele>111.65</ele>
        <time>2011-02-12T07:41:14Z</time>
      </trkpt>
      <trkpt lat="49.02073" lon="1.09062">
        <ele>112.13</ele>
        <time>2011-02-12T07:41:18Z</time>
      </trkpt>
      <trkpt lat="49.02084" lon="1.09106">
        <ele>110.69</ele>
        <time>2011-02-12T07:41:30Z</time>
      </trkpt>
      <trkpt lat="49.02089" lon="1.09119">
        <ele>110.21</ele>
        <time>2011-02-12T07:41:34Z</time>
      </trkpt>
      <trkpt lat="49.02091" lon="1.09125">
        <ele>109.73</ele>
        <time>2011-02-12T07:41:36Z</time>
      </trkpt>
      <trkpt lat="49.02099" lon="1.09166">
        <ele>108.29</ele>
        <time>2011-02-12T07:41:48Z</time>
      </trkpt>
      <trkpt lat="49.021" lon="1.09174">
        <ele>109.73</ele>
        <time>2011-02-12T07:41:50Z</time>
      </trkpt>
      <trkpt lat="49.02112" lon="1.09215">
        <ele>108.29</ele>
        <time>2011-02-12T07:42:01Z</time>
      </trkpt>
      <trkpt lat="49.02115" lon="1.09244">
        <ele>107.32</ele>
        <time>2011-02-12T07:42:09Z</time>
      </trkpt>
      <trkpt lat="49.02113" lon="1.09256">
        <ele>108.29</ele>
        <time>2011-02-12T07:42:13Z</time>
      </trkpt>
      <trkpt lat="49.02099" lon="1.09271">
        <ele>109.25</ele>
        <time>2011-02-12T07:42:20Z</time>
      </trkpt>
      <trkpt lat="49.02094" lon="1.09273">
        <ele>110.21</ele>
        <time>2011-02-12T07:42:23Z</time>
      </trkpt>
      <trkpt lat="49.02077" lon="1.09276">
        <ele>110.69</ele>
        <time>2011-02-12T07:42:34Z</time>
      </trkpt>
      <trkpt lat="49.02064" lon="1.0928">
        <ele>111.65</ele>
        <time>2011-02-12T07:42:40Z</time>
      </trkpt>
      <trkpt lat="49.02061" lon="1.0928">
        <ele>111.17</ele>
        <time>2011-02-12T07:42:42Z</time>
      </trkpt>
      <trkpt lat="49.02046" lon="1.09285">
        <ele>111.65</ele>
        <time>2011-02-12T07:42:50Z</time>
      </trkpt>
      <trkpt lat="49.02044" lon="1.09291">
        <ele>112.61</ele>
        <time>2011-02-12T07:42:52Z</time>
      </trkpt>
      <trkpt lat="49.02027" lon="1.09289">
        <ele>112.61</ele>
        <time>2011-02-12T07:43:04Z</time>
      </trkpt>
      <trkpt lat="49.02023" lon="1.09286">
        <ele>112.13</ele>
        <time>2011-02-12T07:43:07Z</time>
      </trkpt>
      <trkpt lat="49.02018" lon="1.0928">
        <ele>112.61</ele>
        <time>2011-02-12T07:43:11Z</time>
      </trkpt>
      <trkpt lat="49.02" lon="1.09241">
        <ele>114.05</ele>
        <time>2011-02-12T07:43:24Z</time>
      </trkpt>
      <trkpt lat="49.01997" lon="1.09216">
        <ele>112.61</ele>
        <time>2011-02-12T07:43:31Z</time>
      </trkpt>
      <trkpt lat="49.01992" lon="1.09174">
        <ele>113.57</ele>
        <time>2011-02-12T07:43:45Z</time>
      </trkpt>
      <trkpt lat="49.01985" lon="1.0915">
        <ele>113.57</ele>
        <time>2011-02-12T07:43:54Z</time>
      </trkpt>
      <trkpt lat="49.01973" lon="1.09128">
        <ele>114.05</ele>
        <time>2011-02-12T07:44:03Z</time>
      </trkpt>
      <trkpt lat="49.01935" lon="1.09133">
        <ele>115.01</ele>
        <time>2011-02-12T07:44:18Z</time>
      </trkpt>
      <trkpt lat="49.01911" lon="1.09136">
        <ele>115.5</ele>
        <time>2011-02-12T07:44:30Z</time>
      </trkpt>
      <trkpt lat="49.01893" lon="1.0913">
        <ele>115.98</ele>
        <time>2011-02-12T07:44:39Z</time>
      </trkpt>
      <trkpt lat="49.01868" lon="1.09112">
        <ele>116.46</ele>
        <time>2011-02-12T07:44:52Z</time>
      </trkpt>
      <trkpt lat="49.01839" lon="1.09088">
        <ele>116.94</ele>
        <time>2011-02-12T07:45:06Z</time>
      </trkpt>
      <trkpt lat="49.01819" lon="1.0907">
        <ele>117.42</ele>
        <time>2011-02-12T07:45:18Z</time>
      </trkpt>
      <trkpt lat="49.01792" lon="1.09045">
        <ele>116.46</ele>
        <time>2011-02-12T07:45:32Z</time>
      </trkpt>
      <trkpt lat="49.01775" lon="1.09033">
        <ele>115.98</ele>
        <time>2011-02-12T07:45:40Z</time>
      </trkpt>
      <trkpt lat="49.0175" lon="1.09011">
        <ele>116.46</ele>
        <time>2011-02-12T07:45:54Z</time>
      </trkpt>
      <trkpt lat="49.01748" lon="1.09007">
        <ele>117.9</ele>
        <time>2011-02-12T07:45:56Z</time>
      </trkpt>
      <trkpt lat="49.01728" lon="1.08981">
        <ele>115.98</ele>
        <time>2011-02-12T07:46:08Z</time>
      </trkpt>
      <trkpt lat="49.01719" lon="1.08967">
        <ele>115.98</ele>
        <time>2011-02-12T07:46:13Z</time>
      </trkpt>
      <trkpt lat="49.01711" lon="1.08953">
        <ele>115.98</ele>
        <time>2011-02-12T07:46:20Z</time>
      </trkpt>
      <trkpt lat="49.01705" lon="1.08944">
        <ele>115.98</ele>
        <time>2011-02-12T07:46:24Z</time>
      </trkpt>
      <trkpt lat="49.01671" lon="1.08928">
        <ele>115.98</ele>
        <time>2011-02-12T07:46:37Z</time>
      </trkpt>
      <trkpt lat="49.0164" lon="1.08916">
        <ele>115.01</ele>
        <time>2011-02-12T07:46:49Z</time>
      </trkpt>
      <trkpt lat="49.01615" lon="1.08913">
        <ele>114.05</ele>
        <time>2011-02-12T07:46:58Z</time>
      </trkpt>
      <trkpt lat="49.0161" lon="1.08926">
        <ele>115.01</ele>
        <time>2011-02-12T07:47:02Z</time>
      </trkpt>
      <trkpt lat="49.0161" lon="1.08977">
        <ele>115.01</ele>
        <time>2011-02-12T07:47:16Z</time>
      </trkpt>
      <trkpt lat="49.0161" lon="1.09028">
        <ele>115.01</ele>
        <time>2011-02-12T07:47:31Z</time>
      </trkpt>
      <trkpt lat="49.01611" lon="1.0904">
        <ele>115.5</ele>
        <time>2011-02-12T07:47:35Z</time>
      </trkpt>
      <trkpt lat="49.01613" lon="1.09079">
        <ele>116.46</ele>
        <time>2011-02-12T07:47:47Z</time>
      </trkpt>
      <trkpt lat="49.01614" lon="1.091">
        <ele>116.46</ele>
        <time>2011-02-12T07:47:53Z</time>
      </trkpt>
      <trkpt lat="49.01616" lon="1.09142">
        <ele>116.94</ele>
        <time>2011-02-12T07:48:05Z</time>
      </trkpt>
      <trkpt lat="49.01619" lon="1.0919">
        <ele>116.94</ele>
        <time>2011-02-12T07:48:18Z</time>
      </trkpt>
      <trkpt lat="49.01623" lon="1.09241">
        <ele>116.94</ele>
        <time>2011-02-12T07:48:32Z</time>
      </trkpt>
      <trkpt lat="49.01625" lon="1.09287">
        <ele>117.9</ele>
        <time>2011-02-12T07:48:45Z</time>
      </trkpt>
      <trkpt lat="49.0162" lon="1.09301">
        <ele>118.38</ele>
        <time>2011-02-12T07:48:51Z</time>
      </trkpt>
      <trkpt lat="49.01586" lon="1.09299">
        <ele>117.9</ele>
        <time>2011-02-12T07:49:05Z</time>
      </trkpt>
      <trkpt lat="49.01552" lon="1.093">
        <ele>117.9</ele>
        <time>2011-02-12T07:49:18Z</time>
      </trkpt>
      <trkpt lat="49.01536" lon="1.09303">
        <ele>116.94</ele>
        <time>2011-02-12T07:49:25Z</time>
      </trkpt>
      <trkpt lat="49.01512" lon="1.09274">
        <ele>116.46</ele>
        <time>2011-02-12T07:49:38Z</time>
      </trkpt>
      <trkpt lat="49.0148" lon="1.09224">
        <ele>114.53</ele>
        <time>2011-02-12T07:49:56Z</time>
      </trkpt>
      <trkpt lat="49.01454" lon="1.09212">
        <ele>114.53</ele>
        <time>2011-02-12T07:50:08Z</time>
      </trkpt>
      <trkpt lat="49.01428" lon="1.09229">
        <ele>114.53</ele>
        <time>2011-02-12T07:50:20Z</time>
      </trkpt>
      <trkpt lat="49.01403" lon="1.09203">
        <ele>112.61</ele>
        <time>2011-02-12T07:50:33Z</time>
      </trkpt>
      <trkpt lat="49.01391" lon="1.09159">
        <ele>112.13</ele>
        <time>2011-02-12T07:50:46Z</time>
      </trkpt>
      <trkpt lat="49.01363" lon="1.09142">
        <ele>109.73</ele>
        <time>2011-02-12T07:50:58Z</time>
      </trkpt>
      <trkpt lat="49.0133" lon="1.09134">
        <ele>111.65</ele>
        <time>2011-02-12T07:51:12Z</time>
      </trkpt>
      <trkpt lat="49.01302" lon="1.09128">
        <ele>111.17</ele>
        <time>2011-02-12T07:51:24Z</time>
      </trkpt>
      <trkpt lat="49.01274" lon="1.09123">
        <ele>112.61</ele>
        <time>2011-02-12T07:51:36Z</time>
      </trkpt>
      <trkpt lat="49.01245" lon="1.09122">
        <ele>113.09</ele>
        <time>2011-02-12T07:51:49Z</time>
      </trkpt>
      <trkpt lat="49.0122" lon="1.09123">
        <ele>114.53</ele>
        <time>2011-02-12T07:52:01Z</time>
      </trkpt>
      <trkpt lat="49.01195" lon="1.09127">
        <ele>115.5</ele>
        <time>2011-02-12T07:52:14Z</time>
      </trkpt>
      <trkpt lat="49.01164" lon="1.09147">
        <ele>117.9</ele>
        <time>2011-02-12T07:52:32Z</time>
      </trkpt>
      <trkpt lat="49.01151" lon="1.09156">
        <ele>118.86</ele>
        <time>2011-02-12T07:52:40Z</time>
      </trkpt>
      <trkpt lat="49.01126" lon="1.09166">
        <ele>120.3</ele>
        <time>2011-02-12T07:52:54Z</time>
      </trkpt>
      <trkpt lat="49.01106" lon="1.09161">
        <ele>122.22</ele>
        <time>2011-02-12T07:53:06Z</time>
      </trkpt>
      <trkpt lat="49.01104" lon="1.0916">
        <ele>122.22</ele>
        <time>2011-02-12T07:53:07Z</time>
      </trkpt>
      <trkpt lat="49.01097" lon="1.09107">
        <ele>122.71</ele>
        <time>2011-02-12T07:53:22Z</time>
      </trkpt>
      <trkpt lat="49.01102" lon="1.09056">
        <ele>122.22</ele>
        <time>2011-02-12T07:53:36Z</time>
      </trkpt>
      <trkpt lat="49.01105" lon="1.09016">
        <ele>121.26</ele>
        <time>2011-02-12T07:53:47Z</time>
      </trkpt>
      <trkpt lat="49.01092" lon="1.08985">
        <ele>120.78</ele>
        <time>2011-02-12T07:53:57Z</time>
      </trkpt>
      <trkpt lat="49.01083" lon="1.08964">
        <ele>121.26</ele>
        <time>2011-02-12T07:54:04Z</time>
      </trkpt>
      <trkpt lat="49.0106" lon="1.08934">
        <ele>121.74</ele>
        <time>2011-02-12T07:54:16Z</time>
      </trkpt>
      <trkpt lat="49.01041" lon="1.08898">
        <ele>121.26</ele>
        <time>2011-02-12T07:54:28Z</time>
      </trkpt>
      <trkpt lat="49.01028" lon="1.08865">
        <ele>121.26</ele>
        <time>2011-02-12T07:54:39Z</time>
      </trkpt>
      <trkpt lat="49.01006" lon="1.08827">
        <ele>121.26</ele>
        <time>2011-02-12T07:54:52Z</time>
      </trkpt>
      <trkpt lat="49.01001" lon="1.08817">
        <ele>121.26</ele>
        <time>2011-02-12T07:54:56Z</time>
      </trkpt>
      <trkpt lat="49.00967" lon="1.08796">
        <ele>121.26</ele>
        <time>2011-02-12T07:55:10Z</time>
      </trkpt>
      <trkpt lat="49.00952" lon="1.08784">
        <ele>121.74</ele>
        <time>2011-02-12T07:55:17Z</time>
      </trkpt>
      <trkpt lat="49.00925" lon="1.08785">
        <ele>122.22</ele>
        <time>2011-02-12T07:55:29Z</time>
      </trkpt>
      <trkpt lat="49.00921" lon="1.08785">
        <ele>122.22</ele>
        <time>2011-02-12T07:55:31Z</time>
      </trkpt>
      <trkpt lat="49.0089" lon="1.08789">
        <ele>122.71</ele>
        <time>2011-02-12T07:55:44Z</time>
      </trkpt>
      <trkpt lat="49.00863" lon="1.0879">
        <ele>121.74</ele>
        <time>2011-02-12T07:55:55Z</time>
      </trkpt>
      <trkpt lat="49.00845" lon="1.08795">
        <ele>122.22</ele>
        <time>2011-02-12T07:56:04Z</time>
      </trkpt>
      <trkpt lat="49.00826" lon="1.08754">
        <ele>121.74</ele>
        <time>2011-02-12T07:56:17Z</time>
      </trkpt>
      <trkpt lat="49.0082" lon="1.08744">
        <ele>121.26</ele>
        <time>2011-02-12T07:56:21Z</time>
      </trkpt>
      <trkpt lat="49.00813" lon="1.0872">
        <ele>121.26</ele>
        <time>2011-02-12T07:56:33Z</time>
      </trkpt>
      <trkpt lat="49.00812" lon="1.08735">
        <ele>121.26</ele>
        <time>2011-02-12T07:56:39Z</time>
      </trkpt>
      <trkpt lat="49.00797" lon="1.08747">
        <ele>121.26</ele>
        <time>2011-02-12T07:56:44Z</time>
      </trkpt>
      <trkpt lat="49.00768" lon="1.08764">
        <ele>121.74</ele>
        <time>2011-02-12T07:56:55Z</time>
      </trkpt>
      <trkpt lat="49.00733" lon="1.08778">
        <ele>120.78</ele>
        <time>2011-02-12T07:57:07Z</time>
      </trkpt>
      <trkpt lat="49.007" lon="1.088">
        <ele>119.82</ele>
        <time>2011-02-12T07:57:20Z</time>
      </trkpt>
      <trkpt lat="49.00682" lon="1.08812">
        <ele>121.26</ele>
        <time>2011-02-12T07:57:28Z</time>
      </trkpt>
      <trkpt lat="49.0065" lon="1.0883">
        <ele>121.74</ele>
        <time>2011-02-12T07:57:41Z</time>
      </trkpt>
      <trkpt lat="49.00621" lon="1.08847">
        <ele>120.78</ele>
        <time>2011-02-12T07:57:54Z</time>
      </trkpt>
      <trkpt lat="49.00588" lon="1.08862">
        <ele>121.26</ele>
        <time>2011-02-12T07:58:08Z</time>
      </trkpt>
      <trkpt lat="49.00559" lon="1.08881">
        <ele>120.78</ele>
        <time>2011-02-12T07:58:22Z</time>
      </trkpt>
      <trkpt lat="49.00528" lon="1.08902">
        <ele>122.22</ele>
        <time>2011-02-12T07:58:37Z</time>
      </trkpt>
      <trkpt lat="49.00497" lon="1.0892">
        <ele>122.71</ele>
        <time>2011-02-12T07:58:50Z</time>
      </trkpt>
      <trkpt lat="49.00471" lon="1.08932">
        <ele>122.71</ele>
        <time>2011-02-12T07:59:01Z</time>
      </trkpt>
      <trkpt lat="49.00435" lon="1.08954">
        <ele>122.22</ele>
        <time>2011-02-12T07:59:15Z</time>
      </trkpt>
      <trkpt lat="49.00404" lon="1.08976">
        <ele>120.3</ele>
        <time>2011-02-12T07:59:28Z</time>
      </trkpt>
      <trkpt lat="49.0037" lon="1.08993">
        <ele>120.78</ele>
        <time>2011-02-12T07:59:40Z</time>
      </trkpt>
      <trkpt lat="49.00334" lon="1.09017">
        <ele>119.34</ele>
        <time>2011-02-12T07:59:54Z</time>
      </trkpt>
      <trkpt lat="49.00301" lon="1.09033">
        <ele>116.46</ele>
        <time>2011-02-12T08:00:06Z</time>
      </trkpt>
      <trkpt lat="49.00268" lon="1.09056">
        <ele>113.57</ele>
        <time>2011-02-12T08:00:16Z</time>
      </trkpt>
      <trkpt lat="49.00265" lon="1.0906">
        <ele>113.57</ele>
        <time>2011-02-12T08:00:17Z</time>
      </trkpt>
      <trkpt lat="49.00255" lon="1.09076">
        <ele>113.09</ele>
        <time>2011-02-12T08:00:21Z</time>
      </trkpt>
      <trkpt lat="49.00246" lon="1.09077">
        <ele>112.61</ele>
        <time>2011-02-12T08:00:25Z</time>
      </trkpt>
      <trkpt lat="49.00228" lon="1.09034">
        <ele>114.05</ele>
        <time>2011-02-12T08:00:36Z</time>
      </trkpt>
      <trkpt lat="49.0021" lon="1.08992">
        <ele>114.05</ele>
        <time>2011-02-12T08:00:49Z</time>
      </trkpt>
      <trkpt lat="49.00204" lon="1.08957">
        <ele>115.01</ele>
        <time>2011-02-12T08:01:00Z</time>
      </trkpt>
      <trkpt lat="49.00234" lon="1.0895">
        <ele>114.05</ele>
        <time>2011-02-12T08:01:13Z</time>
      </trkpt>
      <trkpt lat="49.0024" lon="1.08946">
        <ele>114.05</ele>
        <time>2011-02-12T08:01:17Z</time>
      </trkpt>
    </trkseg>
  </trk>
</gpx>